createdAt,value
2022-09-09T00:02:58.447Z,11.18
2022-09-09T00:06:10.624Z,11.17
2022-09-09T00:09:22.043Z,11.19
2022-09-09T00:12:33.360Z,11.14
2022-09-09T00:15:44.176Z,11.10
2022-09-09T00:19:06.865Z,11.03
2022-09-09T00:22:18.872Z,10.94
2022-09-09T00:25:32.626Z,10.85
2022-09-09T00:28:40.728Z,10.76
2022-09-09T00:31:42.439Z,10.68
2022-09-09T00:35:02.812Z,10.63
2022-09-09T00:38:24.756Z,10.57
2022-09-09T00:41:45.249Z,10.56
2022-09-09T00:44:46.874Z,10.52
2022-09-09T00:47:53.522Z,10.52
2022-09-09T00:51:01.195Z,10.47
2022-09-09T00:54:31.786Z,10.43
2022-09-09T00:57:35.880Z,10.42
2022-09-09T01:01:13.073Z,10.41
2022-09-09T01:04:21.864Z,10.40
2022-09-09T01:07:24.304Z,10.41
2022-09-09T01:10:54.188Z,10.37
2022-09-09T01:14:41.087Z,10.33
2022-09-09T01:18:13.523Z,10.31
2022-09-09T01:21:38.655Z,10.33
2022-09-09T01:24:52.113Z,10.31
2022-09-09T01:28:14.789Z,10.26
2022-09-09T01:31:37.943Z,10.24
2022-09-09T01:34:42.433Z,10.20
2022-09-09T01:37:44.157Z,10.22
2022-09-09T01:40:46.271Z,10.22
2022-09-09T01:43:48.637Z,10.25
2022-09-09T01:46:50.531Z,10.26
2022-09-09T01:49:54.706Z,10.26
2022-09-09T01:53:03.682Z,10.23
2022-09-09T01:56:30.186Z,10.20
2022-09-09T01:59:56.839Z,10.19
2022-09-09T02:03:24.919Z,10.14
2022-09-09T02:06:40.970Z,10.14
2022-09-09T02:10:29.131Z,10.17
2022-09-09T02:13:44.191Z,10.18
2022-09-09T02:16:56.380Z,10.15
2022-09-09T02:20:11.153Z,10.14
2022-09-09T02:23:22.997Z,10.10
2022-09-09T02:26:28.646Z,10.09
2022-09-09T02:29:42.232Z,10.08
2022-09-09T02:32:47.426Z,10.06
2022-09-09T02:35:53.225Z,10.09
2022-09-09T02:38:57.353Z,10.06
2022-09-09T02:42:05.047Z,10.04
2022-09-09T02:45:09.946Z,10.04
2022-09-09T02:48:31.359Z,10.05
2022-09-09T02:51:39.715Z,10.11
2022-09-09T02:54:41.459Z,10.10
2022-09-09T02:57:48.699Z,10.13
2022-09-09T03:00:52.393Z,10.15
2022-09-09T03:03:56.093Z,10.14
2022-09-09T03:07:00.256Z,10.16
2022-09-09T03:10:02.554Z,10.17
2022-09-09T03:13:06.381Z,10.23
2022-09-09T03:16:12.249Z,10.26
2022-09-09T03:19:19.626Z,10.30
2022-09-09T03:22:22.288Z,10.33
2022-09-09T03:25:24.963Z,10.33
2022-09-09T03:28:32.315Z,10.36
2022-09-09T03:31:36.961Z,10.35
2022-09-09T03:34:41.660Z,10.37
2022-09-09T03:37:46.877Z,10.35
2022-09-09T03:40:56.432Z,10.34
2022-09-09T03:43:59.171Z,10.34
2022-09-09T03:47:03.727Z,10.34
2022-09-09T03:50:09.474Z,10.32
2022-09-09T03:53:12.861Z,10.29
2022-09-09T03:56:15.400Z,10.29
2022-09-09T03:59:17.175Z,10.28
2022-09-09T04:02:19.044Z,10.25
2022-09-09T04:05:20.912Z,10.22
2022-09-09T04:08:26.412Z,10.17
2022-09-09T04:11:29.183Z,10.13
2022-09-09T04:14:34.933Z,10.10
2022-09-09T04:17:39.734Z,10.05
2022-09-09T04:20:41.586Z,9.99
2022-09-09T04:23:43.370Z,9.94
2022-09-09T04:26:46.572Z,9.91
2022-09-09T04:29:48.849Z,9.92
2022-09-09T04:32:52.228Z,9.96
2022-09-09T04:35:55.852Z,9.96
2022-09-09T04:39:00.163Z,9.97
2022-09-09T04:42:02.992Z,9.98
2022-09-09T04:45:05.713Z,10.04
2022-09-09T04:48:09.237Z,10.12
2022-09-09T04:51:14.674Z,10.18
2022-09-09T04:54:17.708Z,10.26
2022-09-09T04:57:21.242Z,10.37
2022-09-09T05:00:22.990Z,10.45
2022-09-09T05:03:25.334Z,10.55
2022-09-09T05:06:26.992Z,10.62
2022-09-09T05:09:32.871Z,10.72
2022-09-09T05:12:36.308Z,10.86
2022-09-09T05:15:38.463Z,10.96
2022-09-09T05:18:42.764Z,11.05
2022-09-09T05:21:44.867Z,11.21
2022-09-09T05:24:48.227Z,11.45
2022-09-09T05:27:50.714Z,11.66
2022-09-09T05:31:09.120Z,11.95
2022-09-09T05:34:11.668Z,12.13
2022-09-09T05:37:13.344Z,12.15
2022-09-09T05:40:15.497Z,12.39
2022-09-09T05:43:17.464Z,12.68
2022-09-09T05:46:22.383Z,12.76
2022-09-09T05:49:26.805Z,13.06
2022-09-09T05:52:29.763Z,13.27
2022-09-09T05:55:33.729Z,13.24
2022-09-09T05:58:36.181Z,13.47
2022-09-09T06:01:41.625Z,13.59
2022-09-09T06:04:46.405Z,13.62
2022-09-09T06:07:48.333Z,13.71
2022-09-09T06:10:50.264Z,13.67
2022-09-09T06:13:54.770Z,13.71
2022-09-09T06:16:57.678Z,13.91
2022-09-09T06:20:04.148Z,14.03
2022-09-09T06:23:07.105Z,14.48
2022-09-09T06:26:22.031Z,14.77
2022-09-09T06:29:25.091Z,14.94
2022-09-09T06:32:29.091Z,15.02
2022-09-09T06:35:30.907Z,15.03
2022-09-09T06:38:33.027Z,15.18
2022-09-09T06:41:35.479Z,15.19
2022-09-09T06:44:38.846Z,15.23
2022-09-09T06:47:45.004Z,15.37
2022-09-09T06:50:47.875Z,15.62
2022-09-09T06:53:54.685Z,15.77
2022-09-09T06:57:11.166Z,15.87
2022-09-09T07:00:23.671Z,16.21
2022-09-09T07:03:27.254Z,16.56
2022-09-09T07:06:31.830Z,16.33
2022-09-09T07:09:35.376Z,16.37
2022-09-09T07:12:38.153Z,16.66
2022-09-09T07:15:40.632Z,16.71
2022-09-09T07:18:42.915Z,17.31
2022-09-09T07:21:44.994Z,17.69
2022-09-09T07:24:50.681Z,17.21
2022-09-09T07:27:57.961Z,17.63
2022-09-09T07:31:05.356Z,17.60
2022-09-09T07:34:08.696Z,18.24
2022-09-09T07:37:12.862Z,18.72
2022-09-09T07:40:17.732Z,18.98
2022-09-09T07:43:19.987Z,19.29
2022-09-09T07:46:24.389Z,18.99
2022-09-09T07:49:30.991Z,19.54
2022-09-09T07:52:35.807Z,19.47
2022-09-09T07:55:40.279Z,19.60
2022-09-09T07:58:42.288Z,19.72
2022-09-09T08:01:55.713Z,19.63
2022-09-09T08:05:00.618Z,19.99
2022-09-09T08:08:04.678Z,19.55
2022-09-09T08:11:13.180Z,19.51
2022-09-09T08:14:15.520Z,19.76
2022-09-09T08:17:18.123Z,20.16
2022-09-09T08:20:20.259Z,19.99
2022-09-09T08:23:22.494Z,20.36
2022-09-09T08:26:27.714Z,20.71
2022-09-09T08:29:30.011Z,20.71
2022-09-09T08:32:35.163Z,21.05
2022-09-09T08:35:37.280Z,20.66
2022-09-09T08:38:39.286Z,21.16
2022-09-09T08:41:50.055Z,22.13
2022-09-09T08:45:04.357Z,22.57
2022-09-09T08:48:13.606Z,23.10
2022-09-09T08:51:15.722Z,22.98
2022-09-09T08:54:35.479Z,23.31
2022-09-09T08:57:47.294Z,24.02
2022-09-09T09:01:15.655Z,23.56
2022-09-09T09:04:32.234Z,23.90
2022-09-09T09:07:49.002Z,24.98
2022-09-09T09:10:58.071Z,24.40
2022-09-09T09:14:15.595Z,23.95
2022-09-09T09:17:20.158Z,24.34
2022-09-09T09:20:35.420Z,23.82
2022-09-09T09:23:46.412Z,24.23
2022-09-09T09:26:49.241Z,24.04
2022-09-09T09:30:21.597Z,23.78
2022-09-09T09:33:19.830Z,24.06
2022-09-09T09:36:35.532Z,24.55
2022-09-09T09:43:03.139Z,24.07
2022-09-09T09:46:17.218Z,23.63
2022-09-09T09:49:20.655Z,23.97
2022-09-09T09:52:25.053Z,23.77
2022-09-09T09:55:31.036Z,24.54
2022-09-09T09:58:37.630Z,24.06
2022-09-09T10:01:39.512Z,23.52
2022-09-09T10:04:46.663Z,23.47
2022-09-09T10:08:05.974Z,24.22
2022-09-09T10:11:35.626Z,24.47
2022-09-09T10:14:55.307Z,24.94
2022-09-09T10:18:21.946Z,24.99
2022-09-09T10:21:58.939Z,25.45
2022-09-09T10:25:09.406Z,25.64
2022-09-09T10:28:44.354Z,25.88
2022-09-09T10:32:14.754Z,25.17
2022-09-09T10:35:28.641Z,24.76
2022-09-09T10:38:47.468Z,24.61
2022-09-09T10:42:20.653Z,23.89
2022-09-09T10:45:51.827Z,23.74
2022-09-09T10:49:09.611Z,24.02
2022-09-09T10:52:20.262Z,23.90
2022-09-09T10:55:29.891Z,24.11
2022-09-09T10:58:43.727Z,24.03
2022-09-09T11:02:01.227Z,23.48
2022-09-09T11:05:20.661Z,24.15
2022-09-09T11:08:26.291Z,24.71
2022-09-09T11:11:27.874Z,25.42
2022-09-09T11:14:37.500Z,25.69
2022-09-09T11:17:47.809Z,25.69
2022-09-09T11:20:58.319Z,25.62
2022-09-09T11:24:10.707Z,25.22
2022-09-09T11:27:20.069Z,26.01
2022-09-09T11:30:55.073Z,25.90
2022-09-09T11:34:09.942Z,26.25
2022-09-09T11:37:41.760Z,26.07
2022-09-09T11:40:44.578Z,26.05
2022-09-09T11:43:54.785Z,25.96
2022-09-09T11:46:56.493Z,25.04
2022-09-09T11:50:16.712Z,24.91
2022-09-09T11:53:23.803Z,24.80
2022-09-09T11:56:45.620Z,25.34
2022-09-09T11:59:53.475Z,25.19
2022-09-09T12:02:55.192Z,25.23
2022-09-09T12:05:57.664Z,25.32
2022-09-09T12:09:09.072Z,25.36
2022-09-09T12:12:13.762Z,24.94
2022-09-09T12:15:22.410Z,24.90
2022-09-09T12:18:37.843Z,25.14
2022-09-09T12:21:55.189Z,24.96
2022-09-09T12:25:14.842Z,24.78
2022-09-09T12:28:20.386Z,24.59
2022-09-09T12:31:49.143Z,25.15
2022-09-09T12:35:13.983Z,24.90
2022-09-09T12:38:29.605Z,25.04
2022-09-09T12:41:31.534Z,24.96
2022-09-09T12:44:33.370Z,24.67
2022-09-09T12:47:46.932Z,24.75
2022-09-09T12:50:53.901Z,24.69
2022-09-09T12:53:57.059Z,24.76
2022-09-09T12:56:58.832Z,24.72
2022-09-09T13:00:12.487Z,24.63
2022-09-09T13:03:23.579Z,24.93
2022-09-09T13:06:29.327Z,25.06
2022-09-09T13:09:31.302Z,25.01
2022-09-09T13:12:33.051Z,24.96
2022-09-09T13:15:34.804Z,25.16
2022-09-09T13:18:40.815Z,25.70
2022-09-09T13:21:43.675Z,25.40
2022-09-09T13:24:45.505Z,24.77
2022-09-09T13:28:21.162Z,25.14
2022-09-09T13:31:31.018Z,24.37
2022-09-09T13:34:36.797Z,23.28
2022-09-09T13:37:42.187Z,22.85
2022-09-09T13:41:00.192Z,22.69
2022-09-09T13:44:03.899Z,22.70
2022-09-09T13:47:21.527Z,22.73
2022-09-09T13:50:29.170Z,22.84
2022-09-09T13:53:33.384Z,22.88
2022-09-09T13:56:36.230Z,22.62
2022-09-09T14:00:01.172Z,22.06
2022-09-09T14:03:03.136Z,21.90
2022-09-09T14:06:04.980Z,21.82
2022-09-09T14:09:08.262Z,21.65
2022-09-09T14:12:12.449Z,21.65
2022-09-09T14:15:15.483Z,21.38
2022-09-09T14:18:17.432Z,21.42
2022-09-09T14:21:19.267Z,21.24
2022-09-09T14:24:20.998Z,21.48
2022-09-09T14:27:22.759Z,21.30
2022-09-09T14:30:24.622Z,21.27
2022-09-09T14:33:26.815Z,21.50
2022-09-09T14:36:28.908Z,21.67
2022-09-09T14:39:30.641Z,21.79
2022-09-09T14:42:32.403Z,21.80
2022-09-09T14:45:37.554Z,21.68
2022-09-09T14:48:41.662Z,21.50
2022-09-09T14:51:43.542Z,21.71
2022-09-09T14:54:45.284Z,21.40
2022-09-09T14:57:47.221Z,21.69
2022-09-09T15:00:49.030Z,21.39
2022-09-09T15:03:56.931Z,21.24
2022-09-09T15:06:59.294Z,21.31
2022-09-09T15:10:03.189Z,21.02
2022-09-09T15:13:05.894Z,20.77
2022-09-09T15:16:09.985Z,20.42
2022-09-09T15:19:11.813Z,20.30
2022-09-09T15:22:14.041Z,20.13
2022-09-09T15:25:15.816Z,20.05
2022-09-09T15:28:19.096Z,20.01
2022-09-09T15:31:25.244Z,19.36
2022-09-09T15:34:27.264Z,19.43
2022-09-09T15:37:30.700Z,19.23
2022-09-09T15:40:38.541Z,19.03
2022-09-09T15:43:49.874Z,18.93
2022-09-09T15:46:56.601Z,18.91
2022-09-09T15:49:58.322Z,18.55
2022-09-09T15:53:00.915Z,18.21
2022-09-09T15:56:02.795Z,18.57
2022-09-09T15:59:04.629Z,18.66
2022-09-09T16:02:06.482Z,18.65
2022-09-09T16:05:08.598Z,18.62
2022-09-09T16:08:10.372Z,18.55
2022-09-09T16:11:21.069Z,18.35
2022-09-09T16:14:23.023Z,18.00
2022-09-09T16:17:24.972Z,17.90
2022-09-09T16:20:26.696Z,17.56
2022-09-09T16:23:28.582Z,17.72
2022-09-09T16:26:32.358Z,17.38
2022-09-09T16:29:34.145Z,17.21
2022-09-09T16:32:36.366Z,17.23
2022-09-09T16:35:39.742Z,17.22
2022-09-09T16:38:41.473Z,17.17
2022-09-09T16:41:47.907Z,16.75
2022-09-09T16:44:51.134Z,16.92
2022-09-09T16:47:55.411Z,16.61
2022-09-09T16:51:10.689Z,16.75
2022-09-09T16:54:14.830Z,16.64
2022-09-09T16:57:16.578Z,16.62
2022-09-09T17:00:18.471Z,16.47
2022-09-09T17:03:20.127Z,16.19
2022-09-09T17:06:22.636Z,15.94
2022-09-09T17:09:28.459Z,15.80
2022-09-09T17:12:30.193Z,15.73
2022-09-09T17:15:31.914Z,15.63
2022-09-09T17:18:33.881Z,15.64
2022-09-09T17:21:42.765Z,15.52
2022-09-09T17:24:56.676Z,15.74
2022-09-09T17:27:59.047Z,15.47
2022-09-09T17:31:02.340Z,15.41
2022-09-09T17:34:05.962Z,15.26
2022-09-09T17:37:07.807Z,15.25
2022-09-09T17:40:10.066Z,14.99
2022-09-09T17:43:12.522Z,14.97
2022-09-09T17:46:23.671Z,14.83
2022-09-09T17:49:25.433Z,14.30
2022-09-09T17:52:27.746Z,13.98
2022-09-09T17:55:29.578Z,13.79
2022-09-09T17:58:31.463Z,13.66
2022-09-09T18:01:36.254Z,13.49
2022-09-09T18:04:38.274Z,13.56
2022-09-09T18:07:42.646Z,13.66
2022-09-09T18:10:53.934Z,13.69
2022-09-09T18:13:58.148Z,13.60
2022-09-09T18:17:02.103Z,13.68
2022-09-09T18:20:04.016Z,13.65
2022-09-09T18:23:05.948Z,13.63
2022-09-09T18:26:13.513Z,13.75
2022-09-09T18:29:19.238Z,13.77
2022-09-09T18:32:21.396Z,13.68
2022-09-09T18:35:24.162Z,13.69
2022-09-09T18:38:25.937Z,13.76
2022-09-09T18:41:31.007Z,13.64
2022-09-09T18:44:35.364Z,13.65
2022-09-09T18:47:37.681Z,13.72
2022-09-09T18:50:39.379Z,13.61
2022-09-09T18:53:41.948Z,13.72
2022-09-09T18:56:44.429Z,13.61
2022-09-09T18:59:46.426Z,13.46
2022-09-09T19:02:52.692Z,13.43
2022-09-09T19:06:01.277Z,13.50
2022-09-09T19:09:04.794Z,13.44
2022-09-09T19:12:08.110Z,13.52
2022-09-09T19:15:10.398Z,13.28
2022-09-09T19:18:12.397Z,13.32
2022-09-09T19:21:20.587Z,13.17
2022-09-09T19:24:25.125Z,13.21
2022-09-09T19:27:27.610Z,13.23
2022-09-09T19:30:30.106Z,13.19
2022-09-09T19:33:32.406Z,13.12
2022-09-09T19:36:34.227Z,13.17
2022-09-09T19:39:35.954Z,13.16
2022-09-09T19:42:37.840Z,13.25
2022-09-09T19:45:39.716Z,13.28
2022-09-09T19:48:42.853Z,13.32
2022-09-09T19:51:44.646Z,13.31
2022-09-09T19:54:46.719Z,13.30
2022-09-09T19:57:48.492Z,13.32
2022-09-09T20:00:50.638Z,13.32
2022-09-09T20:03:54.596Z,13.25
2022-09-09T20:06:56.488Z,13.23
2022-09-09T20:09:58.166Z,13.22
2022-09-09T20:13:00.756Z,13.22
2022-09-09T20:16:05.925Z,13.08
2022-09-09T20:19:11.129Z,13.11
2022-09-09T20:22:12.804Z,13.11
2022-09-09T20:25:15.811Z,13.06
2022-09-09T20:28:18.510Z,13.07
2022-09-09T20:31:26.211Z,13.05
2022-09-09T20:34:30.047Z,12.90
2022-09-09T20:37:32.128Z,12.99
2022-09-09T20:40:37.822Z,13.02
2022-09-09T20:43:39.804Z,12.92
2022-09-09T20:46:47.856Z,12.87
2022-09-09T20:49:49.700Z,12.79
2022-09-09T20:52:52.397Z,12.65
2022-09-09T20:55:59.752Z,12.64
2022-09-09T20:59:01.533Z,12.52
2022-09-09T21:02:04.117Z,12.59
2022-09-09T21:05:06.845Z,12.53
2022-09-09T21:08:09.319Z,12.47
2022-09-09T21:11:11.476Z,12.49
2022-09-09T21:14:13.268Z,12.48
2022-09-09T21:17:14.950Z,12.46
2022-09-09T21:20:16.765Z,12.41
2022-09-09T21:23:18.837Z,12.35
2022-09-09T21:26:20.603Z,12.36
2022-09-09T21:29:22.311Z,12.25
2022-09-09T21:32:24.228Z,12.19
2022-09-09T21:35:26.031Z,12.21
2022-09-09T21:38:28.303Z,12.34
2022-09-09T21:41:30.195Z,12.40
2022-09-09T21:44:32.627Z,12.36
2022-09-09T21:47:34.347Z,12.36
2022-09-09T21:50:48.347Z,12.43
2022-09-09T21:53:50.409Z,12.38
2022-09-09T21:56:52.304Z,12.34
2022-09-09T21:59:54.037Z,12.29
2022-09-09T22:02:55.787Z,12.05
2022-09-09T22:05:58.650Z,12.04
2022-09-09T22:09:01.733Z,11.95
2022-09-09T22:12:03.710Z,11.89
2022-09-09T22:15:07.794Z,11.89
2022-09-09T22:18:09.795Z,11.84
2022-09-09T22:21:14.792Z,11.86
2022-09-09T22:24:16.526Z,11.83
2022-09-09T22:27:18.858Z,11.77
2022-09-09T22:30:21.734Z,11.86
2022-09-09T22:33:24.234Z,11.94
2022-09-09T22:36:26.553Z,11.89
2022-09-09T22:39:28.858Z,11.94
2022-09-09T22:42:30.734Z,12.00
2022-09-09T22:45:33.138Z,11.98
2022-09-09T22:48:36.153Z,11.97
2022-09-09T22:51:38.039Z,11.93
2022-09-09T22:54:41.806Z,11.92
2022-09-09T22:57:43.523Z,11.98
2022-09-09T23:00:45.262Z,12.04
2022-09-09T23:03:48.343Z,12.03
2022-09-09T23:06:50.094Z,12.05
2022-09-09T23:09:51.766Z,12.08
2022-09-09T23:12:54.251Z,12.12
2022-09-09T23:15:55.960Z,12.13
2022-09-09T23:18:57.754Z,12.12
2022-09-09T23:22:00.625Z,12.18
2022-09-09T23:25:04.366Z,12.15
2022-09-09T23:28:06.418Z,12.18
2022-09-09T23:31:10.909Z,12.22
2022-09-09T23:34:13.389Z,12.22
2022-09-09T23:37:15.552Z,12.22
2022-09-09T23:40:17.310Z,12.26
2022-09-09T23:43:19.243Z,12.24
2022-09-09T23:46:25.262Z,12.25
2022-09-09T23:49:27.152Z,12.26
2022-09-09T23:52:28.830Z,12.28
2022-09-09T23:55:30.589Z,12.30
2022-09-09T23:58:33.301Z,12.28
